Time;durP1;ratioP1;P1;durP2;ratioP2;P2;SDS_P1;SDS_P2;PMS_P1;PMS_P2;Temp;Humidity;BMP_temperature;BMP_pressure;BME280_temperature;BME280_humidity;BME280_pressure;Samples;Min_cycle;Max_cycle;Signal;HPM_P1;HPM_P2
2022/10/02 00:02:20;;;;;;;7.63;2.90;;;18.10;79.40;;;;;;4974684;28;20037;-71
2022/10/02 00:04:46;;;;;;;7.28;2.72;;;18.10;79.10;;;;;;4975109;28;20026;-70
2022/10/02 00:07:13;;;;;;;7.78;2.90;;;18.10;79.80;;;;;;4974888;28;20035;-72
2022/10/02 00:09:48;;;;;;;7.05;2.38;;;18.10;80.30;;;;;;4974495;28;20053;-73
2022/10/02 00:12:18;;;;;;;8.18;3.20;;;18.00;80.40;;;;;;4974766;28;20031;-71
2022/10/02 00:14:46;;;;;;;8.02;3.00;;;18.00;80.50;;;;;;4974664;28;20081;-70
2022/10/02 00:17:21;;;;;;;9.30;2.55;;;18.00;80.70;;;;;;4974667;28;20367;-70
2022/10/02 00:19:52;;;;;;;8.02;2.88;;;18.00;80.90;;;;;;4974613;28;20023;-71
2022/10/02 00:22:40;;;;;;;8.18;2.83;;;18.00;81.00;;;;;;4974551;28;20062;-70
2022/10/02 00:25:11;;;;;;;7.65;2.97;;;18.00;81.80;;;;;;4974300;28;20157;-70
2022/10/02 00:27:40;;;;;;;9.50;3.33;;;17.90;82.20;;;;;;4974658;28;20025;-70
2022/10/02 00:30:11;;;;;;;8.43;2.60;;;17.90;82.20;;;;;;4974631;28;20041;-70
2022/10/02 00:32:58;;;;;;;10.70;3.10;;;17.80;82.10;;;;;;4974399;28;20503;-68
2022/10/02 00:35:45;;;;;;;10.52;3.10;;;17.80;82.60;;;;;;4974161;28;20023;-69
2022/10/02 00:38:40;;;;;;;10.32;2.80;;;17.80;82.50;;;;;;4973764;28;20046;-70
2022/10/02 00:41:42;;;;;;;10.13;3.03;;;17.80;82.70;;;;;;4961683;28;20093;-70
2022/10/02 00:44:17;;;;;;;7.80;2.80;;;17.80;83.30;;;;;;4974134;28;20042;-70
2022/10/02 00:47:07;;;;;;;6.82;2.60;;;17.80;82.90;;;;;;4974360;28;20023;-70
2022/10/02 00:50:00;;;;;;;7.25;2.78;;;17.80;83.50;;;;;;4974217;28;20539;-70
2022/10/02 00:52:35;;;;;;;7.53;2.50;;;17.80;83.50;;;;;;4974181;28;20102;-70
2022/10/02 00:55:19;;;;;;;12.63;3.13;;;17.80;83.30;;;;;;4974022;28;20058;-69
2022/10/02 00:58:04;;;;;;;7.78;2.60;;;17.80;83.60;;;;;;4974199;28;20033;-71
2022/10/02 01:00:30;;;;;;;7.80;2.58;;;17.80;83.10;;;;;;4974031;28;20061;-70
2022/10/02 01:03:21;;;;;;;8.07;2.60;;;17.80;83.20;;;;;;4974018;28;20341;-69
2022/10/02 01:05:46;;;;;;;5.93;2.38;;;17.80;83.60;;;;;;4974111;28;20055;-70
2022/10/02 01:08:12;;;;;;;8.15;2.60;;;17.70;83.20;;;;;;4973917;28;20081;-71
2022/10/02 01:10:38;;;;;;;10.07;2.20;;;17.80;83.40;;;;;;4973935;28;20059;-71
2022/10/02 01:13:05;;;;;;;7.88;2.60;;;17.70;83.10;;;;;;4973951;28;20066;-71
2022/10/02 01:15:36;;;;;;;9.68;2.35;;;17.70;83.60;;;;;;4973831;28;20027;-69
2022/10/02 01:18:02;;;;;;;12.05;2.70;;;17.60;83.70;;;;;;4973868;28;20085;-70
2022/10/02 01:20:37;;;;;;;10.00;2.80;;;17.70;83.80;;;;;;4973810;28;20035;-73
2022/10/02 01:23:27;;;;;;;7.70;2.20;;;17.70;84.10;;;;;;4973945;28;20046;-71
2022/10/02 01:25:53;;;;;;;6.78;2.28;;;17.70;84.20;;;;;;4973730;28;20027;-75
2022/10/02 01:28:20;;;;;;;8.63;2.55;;;17.70;83.80;;;;;;4973917;28;20046;-71
2022/10/02 01:30:50;;;;;;;10.52;2.53;;;17.70;83.80;;;;;;4973765;28;20055;-73
2022/10/02 01:33:17;;;;;;;5.05;2.17;;;17.70;83.90;;;;;;4973916;28;20030;-72
2022/10/02 01:35:43;;;;;;;7.57;1.98;;;17.70;83.60;;;;;;4973521;28;20023;-73
2022/10/02 01:38:13;;;;;;;7.10;2.13;;;17.70;83.40;;;;;;4973902;28;20019;-70
2022/10/02 01:40:40;;;;;;;8.00;2.00;;;17.70;83.50;;;;;;4956484;28;20027;-71
2022/10/02 01:43:09;;;;;;;6.88;2.28;;;17.60;83.40;;;;;;4973725;28;20019;-69
2022/10/02 01:46:09;;;;;;;7.60;2.50;;;17.60;83.90;;;;;;4973964;28;20050;-71
2022/10/02 01:48:57;;;;;;;6.47;1.88;;;17.60;83.70;;;;;;4973837;28;20034;-72
2022/10/02 01:52:02;;;;;;;5.82;1.90;;;17.50;83.90;;;;;;4959944;28;20030;-70
2022/10/02 01:54:52;;;;;;;6.35;2.15;;;17.50;83.40;;;;;;4976412;28;20102;-71
2022/10/02 01:57:45;;;;;;;6.45;2.03;;;17.60;84.10;;;;;;4990443;28;20136;-70
2022/10/02 02:00:24;;;;;;;5.05;2.25;;;17.50;83.30;;;;;;5016373;28;20390;-70
2022/10/02 02:02:59;;;;;;;8.50;2.53;;;17.60;83.70;;;;;;5015750;28;20080;-71
2022/10/02 02:05:59;;;;;;;6.82;2.05;;;17.60;83.50;;;;;;5015979;28;20026;-71
2022/10/02 02:08:32;;;;;;;6.40;2.17;;;17.60;83.30;;;;;;5015814;28;20498;-70
2022/10/02 02:11:19;;;;;;;7.40;2.10;;;17.40;83.10;;;;;;5016173;28;20026;-70
2022/10/02 02:14:02;;;;;;;4.50;1.75;;;17.40;83.60;;;;;;5015643;28;20706;-71
2022/10/02 02:16:43;;;;;;;7.47;2.33;;;17.40;84.00;;;;;;5015889;28;20392;-72
2022/10/02 02:19:33;;;;;;;8.50;1.95;;;17.30;83.80;;;;;;5015769;28;20475;-70
2022/10/02 02:22:25;;;;;;;6.57;2.25;;;17.30;83.80;;;;;;5015782;28;20029;-70
2022/10/02 02:24:56;;;;;;;5.53;2.10;;;17.30;84.10;;;;;;5015812;28;20580;-69
2022/10/02 02:27:27;;;;;;;4.18;1.73;;;17.30;83.80;;;;;;5015529;28;20026;-70
2022/10/02 02:29:59;;;;;;;4.00;1.75;;;17.30;83.70;;;;;;5015553;28;20376;-70
2022/10/02 02:32:28;;;;;;;6.97;1.88;;;17.30;83.80;;;;;;5015661;28;20021;-69
2022/10/02 02:35:03;;;;;;;4.80;1.63;;;17.20;84.10;;;;;;5015547;28;20048;-76
2022/10/02 02:37:32;;;;;;;9.88;1.95;;;17.20;84.40;;;;;;5015455;28;20100;-73
2022/10/02 02:40:08;;;;;;;8.23;1.98;;;17.20;84.50;;;;;;5015425;28;20018;-73
2022/10/02 02:42:41;;;;;;;9.27;1.92;;;17.20;84.60;;;;;;5015045;28;20025;-72
2022/10/02 02:45:21;;;;;;;10.65;2.20;;;17.20;84.50;;;;;;4981254;28;20498;-75
2022/10/02 02:48:05;;;;;;;5.97;2.00;;;17.10;84.40;;;;;;5015357;28;20100;-74
2022/10/02 02:50:30;;;;;;;;;;;17.20;84.90;;;;;;5015630;28;20026;-76
2022/10/02 02:53:05;;;;;;;6.78;1.92;;;17.20;84.70;;;;;;5015396;28;19913;-76
2022/10/02 02:55:38;;;;;;;10.73;2.63;;;17.10;84.90;;;;;;5014993;28;20020;-73
2022/10/02 02:58:11;;;;;;;;;;;17.10;85.00;;;;;;5015673;28;20026;-75
2022/10/02 03:00:37;;;;;;;4.55;1.88;;;17.10;85.20;;;;;;5014383;28;20277;-74
2022/10/02 03:03:03;;;;;;;9.35;2.03;;;17.10;85.00;;;;;;5014637;28;20112;-73
2022/10/02 03:05:30;;;;;;;4.85;1.80;;;17.10;84.80;;;;;;5014514;28;20030;-73
2022/10/02 03:08:14;;;;;;;5.65;1.60;;;17.10;84.90;;;;;;5014667;28;20026;-76
2022/10/02 03:10:51;;;;;;;7.75;2.13;;;17.10;85.30;;;;;;5014824;28;20155;-75
2022/10/02 03:13:35;;;;;;;5.18;2.10;;;17.20;85.50;;;;;;5014773;28;20087;-75
2022/10/02 03:16:25;;;;;;;8.65;1.90;;;17.20;85.30;;;;;;5014564;28;20053;-74
2022/10/02 03:19:25;;;;;;;9.02;2.03;;;17.20;85.40;;;;;;5014799;28;20030;-76
2022/10/02 03:22:01;;;;;;;5.38;1.77;;;17.10;85.30;;;;;;4977697;28;20049;-76
2022/10/02 03:24:42;;;;;;;5.07;1.80;;;17.10;85.20;;;;;;5014783;28;20087;-73
2022/10/02 03:27:13;;;;;;;5.60;1.92;;;17.10;85.30;;;;;;5014874;28;20084;-76
2022/10/02 03:29:51;;;;;;;6.50;2.05;;;17.10;85.60;;;;;;5014485;28;20030;-73
2022/10/02 03:32:18;;;;;;;10.75;2.42;;;17.10;85.70;;;;;;5014534;28;20091;-77
2022/10/02 03:34:44;;;;;;;8.60;2.15;;;17.10;85.50;;;;;;5014240;28;20026;-75
2022/10/02 03:37:10;;;;;;;8.27;2.60;;;17.10;85.70;;;;;;4996749;28;20317;-74
2022/10/02 03:39:41;;;;;;;6.95;2.47;;;17.10;85.70;;;;;;5014335;28;20026;-75
2022/10/02 03:42:10;;;;;;;14.82;2.40;;;17.10;85.50;;;;;;5014334;28;20026;-75
2022/10/02 03:44:36;;;;;;;6.40;2.08;;;17.10;85.70;;;;;;5014017;28;20030;-76
2022/10/02 03:47:02;;;;;;;9.43;2.63;;;17.10;85.90;;;;;;5014070;28;20053;-73
2022/10/02 03:49:27;;;;;;;6.68;2.22;;;17.10;85.90;;;;;;4996328;28;20022;-75
2022/10/02 03:51:53;;;;;;;6.35;2.25;;;17.10;85.70;;;;;;4996199;28;20028;-76
2022/10/02 03:54:20;;;;;;;4.78;2.13;;;17.20;85.80;;;;;;5014095;28;20022;-73
2022/10/02 03:56:54;;;;;;;7.05;2.10;;;17.20;85.70;;;;;;5013937;28;20438;-73
2022/10/02 03:59:33;;;;;;;6.95;2.17;;;17.10;85.90;;;;;;5014116;28;20026;-73
2022/10/02 04:02:05;;;;;;;5.68;2.08;;;17.10;86.10;;;;;;5013835;28;20109;-71
2022/10/02 04:05:05;;;;;;;8.60;2.90;;;17.20;86.90;;;;;;5013630;28;20379;-71
2022/10/02 04:07:36;;;;;;;6.82;2.33;;;17.20;86.40;;;;;;4984104;28;20038;-74
2022/10/02 04:10:12;;;;;;;9.25;2.40;;;17.20;86.10;;;;;;5013531;28;20050;-70
2022/10/02 04:12:47;;;;;;;9.73;2.72;;;17.10;86.30;;;;;;4995306;28;20082;-74
2022/10/02 04:15:52;;;;;;;8.48;2.45;;;17.10;86.30;;;;;;5014055;28;20088;-75
2022/10/02 04:18:29;;;;;;;9.30;2.95;;;17.10;86.80;;;;;;4979012;28;20097;-75
2022/10/02 04:21:02;;;;;;;7.07;2.50;;;17.10;86.60;;;;;;5013490;28;20123;-76
2022/10/02 04:23:38;;;;;;;6.90;2.40;;;17.00;86.90;;;;;;5013401;28;20038;-73
2022/10/02 04:26:12;;;;;;;7.45;2.67;;;17.00;87.00;;;;;;5013251;28;20022;-75
2022/10/02 04:28:40;;;;;;;;;;;17.00;87.20;;;;;;5013852;28;20104;-74
2022/10/02 04:31:11;;;;;;;7.22;2.55;;;16.90;87.50;;;;;;5013601;28;19963;-75
2022/10/02 04:33:38;;;;;;;6.55;2.53;;;16.90;87.00;;;;;;5013606;28;20038;-74
2022/10/02 04:36:22;;;;;;;5.85;2.55;;;16.90;86.90;;;;;;5013736;28;20501;-73
2022/10/02 04:38:54;;;;;;;;;;;16.90;87.50;;;;;;5014319;28;20030;-74
2022/10/02 04:41:20;;;;;;;8.40;2.63;;;16.90;87.50;;;;;;5013391;28;19912;-75
2022/10/02 04:43:45;;;;;;;5.97;2.63;;;16.90;86.90;;;;;;5013117;28;20041;-74
2022/10/02 04:46:30;;;;;;;6.18;2.15;;;16.90;86.90;;;;;;5013057;28;20030;-76
2022/10/02 04:49:13;;;;;;;7.47;2.72;;;16.80;87.40;;;;;;5013189;28;20095;-76
2022/10/02 04:51:39;;;;;;;12.82;2.50;;;16.90;87.70;;;;;;5013000;28;20053;-76
2022/10/02 04:54:28;;;;;;;7.65;2.40;;;16.80;87.30;;;;;;5012992;28;20022;-75
2022/10/02 04:57:21;;;;;;;10.32;3.20;;;16.90;87.70;;;;;;5012742;28;20021;-75
2022/10/02 04:59:47;;;;;;;6.60;2.97;;;16.80;87.40;;;;;;5013128;28;20092;-74
2022/10/02 05:02:15;;;;;;;8.80;3.03;;;16.70;87.30;;;;;;4995550;28;20476;-71
2022/10/02 05:05:18;;;;;;;8.02;3.22;;;16.70;87.70;;;;;;5013060;28;20099;-70
2022/10/02 05:08:06;;;;;;;8.90;2.70;;;16.70;87.80;;;;;;5013118;28;20387;-70
2022/10/02 05:10:56;;;;;;;7.43;2.63;;;16.70;88.00;;;;;;5013100;28;20034;-70
2022/10/02 05:13:35;;;;;;;8.23;2.92;;;16.70;88.10;;;;;;5013176;28;20046;-69
2022/10/02 05:16:25;;;;;;;7.60;3.08;;;16.60;88.10;;;;;;5012686;28;20058;-70
2022/10/02 05:19:13;;;;;;;9.35;3.30;;;16.60;88.30;;;;;;5013010;28;20112;-69
2022/10/02 05:21:44;;;;;;;8.80;2.92;;;16.60;87.90;;;;;;5012817;28;20087;-70
2022/10/02 05:24:13;;;;;;;15.48;3.35;;;16.70;87.60;;;;;;5013925;28;20054;-71
2022/10/02 05:26:57;;;;;;;4.50;2.45;;;16.70;87.70;;;;;;5016859;28;20064;-71
2022/10/02 05:29:59;;;;;;;8.35;3.00;;;16.70;87.70;;;;;;5016875;28;20033;-69
2022/10/02 05:32:44;;;;;;;6.88;2.60;;;16.70;87.80;;;;;;5016744;28;20173;-70
2022/10/02 05:35:12;;;;;;;;;;;16.70;87.50;;;;;;5016712;28;20506;-69
2022/10/02 05:37:46;;;;;;;8.70;3.22;;;16.70;88.40;;;;;;5016840;28;19916;-69
2022/10/02 05:40:35;;;;;;;8.32;2.58;;;16.70;87.60;;;;;;5016303;28;20064;-69
2022/10/02 05:43:18;;;;;;;7.18;2.72;;;16.70;87.80;;;;;;5015919;28;20038;-70
2022/10/02 05:46:14;;;;;;;6.40;2.63;;;16.70;87.60;;;;;;5015978;28;20025;-72
2022/10/02 05:48:39;;;;;;;8.70;3.47;;;16.70;87.10;;;;;;5002198;28;20545;-72
2022/10/02 05:51:10;;;;;;;13.43;3.30;;;16.60;87.10;;;;;;5016123;28;20113;-74
2022/10/02 05:53:49;;;;;;;7.65;2.92;;;16.60;87.00;;;;;;5016180;28;20052;-76
2022/10/02 05:56:17;;;;;;;9.18;2.60;;;16.60;87.60;;;;;;5015945;28;20426;-73
2022/10/02 05:59:24;;;;;;;7.85;2.95;;;16.60;87.50;;;;;;5015883;28;20472;-72
2022/10/02 06:01:51;;;;;;;10.70;3.10;;;16.80;87.60;;;;;;4993748;28;20566;-72
2022/10/02 06:04:25;;;;;;;11.02;4.00;;;16.90;86.80;;;;;;5015458;28;20038;-74
2022/10/02 06:06:55;;;;;;;7.07;3.33;;;17.00;86.60;;;;;;5015586;28;20022;-74
2022/10/02 06:09:28;;;;;;;6.70;2.65;;;17.10;86.40;;;;;;5015517;28;20128;-72
2022/10/02 06:12:29;;;;;;;8.70;2.70;;;17.20;86.30;;;;;;4998306;28;20037;-73
2022/10/02 06:15:21;;;;;;;7.15;3.50;;;17.40;86.20;;;;;;5015533;28;20084;-75
2022/10/02 06:18:02;;;;;;;8.23;2.83;;;17.50;85.60;;;;;;5015445;28;20045;-74
2022/10/02 06:20:52;;;;;;;5.43;2.58;;;17.70;85.00;;;;;;5015596;28;20097;-71
2022/10/02 06:23:38;;;;;;;10.85;2.60;;;17.80;84.60;;;;;;5015517;28;20034;-72
2022/10/02 06:26:32;;;;;;;10.60;2.90;;;18.00;83.60;;;;;;5015479;28;20084;-75
2022/10/02 06:29:06;;;;;;;7.70;2.60;;;18.10;83.60;;;;;;5008017;28;20041;-74
2022/10/02 06:31:47;;;;;;;6.50;2.83;;;18.20;82.70;;;;;;5015394;28;20022;-73
2022/10/02 06:34:14;;;;;;;7.00;3.15;;;18.40;82.50;;;;;;5015405;28;20029;-75
2022/10/02 06:37:17;;;;;;;6.47;2.90;;;18.50;81.80;;;;;;5014391;28;20442;-71
2022/10/02 06:39:45;;;;;;;8.43;3.03;;;18.70;81.50;;;;;;5015533;28;20046;-70
2022/10/02 06:43:08;;;;;;;6.22;2.80;;;18.70;80.40;;;;;;5015586;28;20498;-70
2022/10/02 06:46:13;;;;;;;9.02;3.25;;;18.90;80.00;;;;;;4935564;29;20107;-70
2022/10/02 06:49:12;;;;;;;9.77;2.92;;;19.00;79.90;;;;;;4935282;29;20044;-70
2022/10/02 06:52:11;;;;;;;9.25;3.53;;;19.10;80.30;;;;;;5015143;28;20034;-70
2022/10/02 06:55:12;;;;;;;6.32;2.70;;;19.30;79.60;;;;;;4984425;28;20042;-70
2022/10/02 06:57:56;;;;;;;5.40;2.13;;;19.40;78.50;;;;;;4974727;28;20348;-70
2022/10/02 07:00:22;;;;;;;6.78;2.85;;;19.50;77.90;;;;;;5011723;28;20490;-70
2022/10/02 07:03:02;;;;;;;7.60;2.47;;;19.60;77.80;;;;;;4975862;28;20117;-71
2022/10/02 07:05:52;;;;;;;10.15;2.80;;;19.70;77.90;;;;;;4975689;28;20106;-69
2022/10/02 07:08:48;;;;;;;7.97;2.80;;;19.70;77.40;;;;;;4975552;28;20043;-70
2022/10/02 07:11:49;;;;;;;8.18;2.90;;;19.80;77.30;;;;;;4984497;28;20073;-76
2022/10/02 07:14:21;;;;;;;6.78;2.80;;;19.90;76.70;;;;;;4995192;28;20046;-76
2022/10/02 07:16:57;;;;;;;6.68;3.10;;;20.00;76.00;;;;;;4995199;28;20069;-75
2022/10/02 07:19:23;;;;;;;7.40;2.80;;;20.00;76.20;;;;;;4995040;28;20026;-74
2022/10/02 07:22:16;;;;;;;6.82;2.88;;;20.10;74.90;;;;;;4993450;28;20461;-78
2022/10/02 07:25:15;;;;;;;9.50;2.63;;;20.30;75.10;;;;;;4977744;28;20435;-78
2022/10/02 07:27:57;;;;;;;8.05;2.83;;;20.30;75.00;;;;;;4978183;28;20558;-79
2022/10/02 07:30:24;;;;;;;6.45;2.80;;;20.50;74.00;;;;;;4976964;28;20023;-78
2022/10/02 07:33:07;;;;;;;8.38;2.70;;;20.80;73.50;;;;;;4975741;28;20038;-82
2022/10/02 07:36:15;;;;;;;8.40;3.37;;;21.00;73.00;;;;;;4975182;28;20110;-73
2022/10/02 07:38:44;;;;;;;9.68;3.35;;;21.10;72.00;;;;;;4915707;29;20071;-73
2022/10/02 07:41:32;;;;;;;10.45;3.40;;;21.10;71.70;;;;;;4915517;29;20130;-76
2022/10/02 07:44:18;;;;;;;9.23;3.35;;;21.20;71.50;;;;;;4955096;28;20524;-74
2022/10/02 07:46:53;;;;;;;5.38;2.20;;;21.10;71.60;;;;;;4974658;28;20033;-71
2022/10/02 07:49:42;;;;;;;8.25;2.63;;;21.10;70.90;;;;;;4974820;28;20035;-73
2022/10/02 07:52:17;;;;;;;10.18;3.22;;;21.10;70.80;;;;;;4974905;28;20019;-72
2022/10/02 07:55:11;;;;;;;9.15;2.70;;;21.10;71.60;;;;;;4974657;28;20031;-73
2022/10/02 07:57:43;;;;;;;6.38;2.55;;;21.00;71.30;;;;;;4975181;28;20042;-72
2022/10/02 08:00:17;;;;;;;11.05;2.38;;;20.90;71.70;;;;;;4974773;28;20364;-74
2022/10/02 08:02:51;;;;;;;7.07;2.90;;;20.70;70.70;;;;;;4974894;28;20357;-80
2022/10/02 08:05:20;;;;;;;7.20;3.70;;;20.70;71.20;;;;;;4974850;28;20038;-78
2022/10/02 08:07:49;;;;;;;10.35;3.17;;;20.60;70.90;;;;;;4974876;28;20377;-75
2022/10/02 08:10:19;;;;;;;10.02;3.10;;;20.60;70.90;;;;;;4974770;28;20166;-78
2022/10/02 08:13:10;;;;;;;5.10;1.98;;;20.60;70.90;;;;;;4976904;28;20373;-67
2022/10/02 08:15:37;;;;;;;8.98;2.50;;;20.60;70.60;;;;;;4988697;28;20098;-75
2022/10/02 08:18:33;;;;;;;13.15;2.80;;;20.60;70.70;;;;;;4993931;28;20042;-77
2022/10/02 08:21:01;;;;;;;9.55;3.15;;;20.60;70.90;;;;;;4994207;28;20038;-76
2022/10/02 08:24:08;;;;;;;10.02;3.03;;;20.60;70.80;;;;;;4994151;28;20041;-74
2022/10/02 08:26:47;;;;;;;8.65;4.55;;;20.70;71.20;;;;;;4933147;29;20139;-75
2022/10/02 08:29:21;;;;;;;6.85;2.40;;;20.70;71.00;;;;;;4979433;28;20125;-70
2022/10/02 08:31:51;;;;;;;8.90;2.83;;;20.80;70.70;;;;;;4984076;28;20068;-72
2022/10/02 08:34:22;;;;;;;5.65;2.22;;;20.90;70.00;;;;;;4990787;28;20030;-70
2022/10/02 08:37:17;;;;;;;5.40;1.98;;;21.00;69.80;;;;;;4984080;28;20050;-69
2022/10/02 08:40:04;;;;;;;5.65;2.00;;;21.00;70.10;;;;;;4978759;28;20025;-67
2022/10/02 08:42:39;;;;;;;10.90;2.28;;;21.20;69.70;;;;;;4990411;28;20101;-70
2022/10/02 08:46:01;;;;;;;4.35;1.88;;;21.20;69.00;;;;;;4975802;28;20422;-73
2022/10/02 08:49:01;;;;;;;7.70;1.90;;;21.40;68.30;;;;;;4914577;29;20071;-70
2022/10/02 08:51:52;;;;;;;5.60;2.25;;;21.50;68.50;;;;;;4905543;29;20156;-73
2022/10/02 08:54:55;;;;;;;6.10;1.98;;;21.60;67.90;;;;;;4979704;28;20030;-71
2022/10/02 08:58:14;;;;;;;6.87;1.83;;;21.60;67.40;;;;;;4905560;29;20529;-71
2022/10/02 09:01:11;;;;;;;7.90;2.15;;;21.60;67.20;;;;;;4913652;29;20035;-68
2022/10/02 09:04:04;;;;;;;6.85;2.20;;;21.70;67.20;;;;;;4946073;28;20055;-70
2022/10/02 09:06:39;;;;;;;9.40;2.50;;;21.60;67.00;;;;;;4984493;28;20030;-71
2022/10/02 09:09:33;;;;;;;11.43;2.10;;;21.70;67.10;;;;;;4978909;28;20181;-71
2022/10/02 09:12:04;;;;;;;6.43;2.00;;;21.70;67.10;;;;;;4984387;28;20066;-74
2022/10/02 09:14:47;;;;;;;9.77;2.08;;;21.80;66.80;;;;;;4986019;28;20391;-75
2022/10/02 09:17:18;;;;;;;6.00;1.40;;;21.80;66.60;;;;;;4992972;28;20101;-72
2022/10/02 09:20:34;;;;;;;4.80;1.70;;;21.80;66.70;;;;;;4990086;28;20031;-79
2022/10/02 09:23:36;;;;;;;5.07;1.70;;;21.90;66.70;;;;;;4973564;28;20436;-75
2022/10/02 09:26:11;;;;;;;8.82;2.33;;;21.90;66.50;;;;;;4985107;28;20030;-80
2022/10/02 09:28:58;;;;;;;8.75;2.28;;;22.00;66.50;;;;;;4989634;28;20081;-75
2022/10/02 09:31:52;;;;;;;5.45;2.10;;;22.10;66.20;;;;;;4984042;28;20026;-75
2022/10/02 09:34:50;;;;;;;5.13;1.50;;;22.20;66.10;;;;;;4969735;28;20049;-74
2022/10/02 09:37:36;;;;;;;5.80;1.60;;;22.30;65.80;;;;;;4950286;28;20039;-75
2022/10/02 09:40:13;;;;;;;6.65;1.80;;;22.40;65.30;;;;;;4992975;28;20030;-68
2022/10/02 09:43:25;;;;;;;8.65;2.00;;;22.50;65.20;;;;;;4992997;28;20026;-76
2022/10/02 09:46:12;;;;;;;9.50;1.70;;;22.60;64.90;;;;;;4993126;28;20034;-71
2022/10/02 09:49:07;;;;;;;8.98;1.60;;;22.70;64.70;;;;;;4993336;28;20034;-71
2022/10/02 09:52:01;;;;;;;5.20;1.60;;;22.80;64.40;;;;;;4985860;28;20100;-70
2022/10/02 09:54:45;;;;;;;6.65;1.73;;;22.80;64.10;;;;;;4992911;28;20464;-74
2022/10/02 09:57:43;;;;;;;4.88;1.48;;;22.90;65.50;;;;;;4992993;28;20093;-75
2022/10/02 10:00:27;;;;;;;5.68;1.70;;;23.00;63.80;;;;;;4990118;28;20491;-80
2022/10/02 10:03:35;;;;;;;8.75;1.55;;;23.10;63.40;;;;;;4990010;28;20042;-71
2022/10/02 10:06:18;;;;;;;6.90;1.40;;;23.30;63.40;;;;;;4973686;28;20122;-74
2022/10/02 10:08:59;;;;;;;5.05;1.58;;;23.40;62.90;;;;;;4973514;28;20405;-76
2022/10/02 10:11:53;;;;;;;6.22;1.20;;;23.50;62.80;;;;;;4975062;28;20031;-71
2022/10/02 10:14:37;;;;;;;5.82;1.70;;;23.50;62.70;;;;;;4977206;28;20043;-70
2022/10/02 10:17:29;;;;;;;7.20;2.50;;;23.50;62.50;;;;;;4976632;28;20073;-73
2022/10/02 10:20:00;;;;;;;4.97;1.85;;;23.60;62.50;;;;;;4995003;28;20034;-71
2022/10/02 10:23:03;;;;;;;22.73;7.05;;;23.70;62.00;;;;;;4996738;28;20357;-73
2022/10/02 10:25:55;;;;;;;8.25;2.67;;;23.90;61.80;;;;;;4995958;28;20031;-80
2022/10/02 10:28:27;;;;;;;6.97;2.22;;;24.00;61.60;;;;;;4995791;28;20038;-76
2022/10/02 10:31:20;;;;;;;9.50;3.28;;;24.10;61.20;;;;;;4996027;28;20026;-78
2022/10/02 10:34:07;;;;;;;11.90;3.47;;;24.30;61.00;;;;;;4995495;28;20022;-77
2022/10/02 10:39:29;;;;;;;15.70;4.82;;;24.50;60.70;;;;;;4996127;28;20124;-75
2022/10/02 10:42:19;;;;;;;7.50;2.33;;;24.50;60.60;;;;;;4995947;28;20022;-76
2022/10/02 10:45:04;;;;;;;6.30;2.30;;;24.60;60.50;;;;;;4978277;28;20513;-75
2022/10/02 10:47:53;;;;;;;5.22;1.65;;;24.60;60.50;;;;;;4996107;28;20045;-75
2022/10/02 10:50:34;;;;;;;6.78;1.80;;;24.60;59.90;;;;;;4995913;28;20022;-77
2022/10/02 10:53:20;;;;;;;5.80;1.95;;;24.60;59.80;;;;;;4995542;28;20054;-74
2022/10/02 10:56:03;;;;;;;8.40;2.72;;;24.70;60.10;;;;;;4995240;28;20117;-74
2022/10/02 10:58:43;;;;;;;8.35;2.10;;;24.70;59.70;;;;;;4985418;28;20026;-73
2022/10/02 11:01:41;;;;;;;7.65;1.98;;;24.80;59.50;;;;;;4975999;28;20357;-75
2022/10/02 11:04:26;;;;;;;7.47;2.30;;;24.80;59.60;;;;;;4943346;28;20094;-77
2022/10/02 11:07:43;;;;;;;5.28;1.75;;;24.90;59.00;;;;;;4985221;28;20112;-73
2022/10/02 11:10:17;;;;;;;4.97;1.73;;;25.00;58.70;;;;;;4993576;28;20129;-70
2022/10/02 11:13:10;;;;;;;5.50;2.15;;;25.00;58.70;;;;;;4981735;28;20034;-70
2022/10/02 11:15:51;;;;;;;6.43;1.60;;;25.10;58.00;;;;;;4969349;28;20027;-76
2022/10/02 11:18:38;;;;;;;9.63;3.20;;;25.10;57.80;;;;;;4958322;28;20348;-74
2022/10/02 11:21:19;;;;;;;7.80;2.63;;;25.20;57.70;;;;;;4973367;28;20038;-75
2022/10/02 11:24:12;;;;;;;6.20;1.67;;;25.20;57.30;;;;;;4975223;28;20030;-73
2022/10/02 11:27:22;;;;;;;7.07;1.80;;;25.20;56.80;;;;;;4974928;28;20038;-76
2022/10/02 11:30:04;;;;;;;5.95;1.60;;;25.30;56.60;;;;;;4960181;28;20034;-73
2022/10/02 11:33:03;;;;;;;8.02;2.55;;;25.30;56.50;;;;;;4975674;28;20019;-76
2022/10/02 11:36:04;;;;;;;6.82;1.83;;;25.40;56.60;;;;;;4975249;28;20031;-78
2022/10/02 11:39:05;;;;;;;7.35;2.30;;;25.50;56.30;;;;;;4975654;28;20544;-78
2022/10/02 11:41:48;;;;;;;8.77;3.25;;;25.60;55.90;;;;;;4975277;28;20100;-77
2022/10/02 11:44:17;;;;;;;;;;;25.70;55.30;;;;;;4975430;28;20115;-75
2022/10/02 11:47:07;;;;;;;8.27;1.33;;;25.70;52.70;;;;;;4975291;28;19937;-76
2022/10/02 11:50:00;;;;;;;5.50;1.20;;;25.70;54.40;;;;;;4975343;28;20480;-76
2022/10/02 11:52:35;;;;;;;7.93;3.15;;;25.80;54.20;;;;;;4975054;28;20051;-74
2022/10/02 11:55:31;;;;;;;6.53;2.08;;;25.90;53.80;;;;;;4974810;28;20031;-71
2022/10/02 11:58:12;;;;;;;4.82;1.58;;;25.90;53.50;;;;;;4974973;28;20213;-73
2022/10/02 12:00:46;;;;;;;7.15;1.98;;;25.90;53.80;;;;;;4974718;28;20106;-76
2022/10/02 12:03:20;;;;;;;4.25;1.75;;;26.00;53.80;;;;;;4974553;28;20070;-71
2022/10/02 12:06:01;;;;;;;7.30;1.98;;;26.10;53.40;;;;;;4974622;28;20058;-75
2022/10/02 12:09:06;;;;;;;5.55;1.95;;;26.20;52.80;;;;;;4980734;28;20057;-76
2022/10/02 12:11:39;;;;;;;;;;;26.20;52.60;;;;;;4995029;28;20543;-74
2022/10/02 12:14:41;;;;;;;7.43;1.85;;;26.30;52.70;;;;;;4994018;28;19953;-75
2022/10/02 12:17:15;;;;;;;5.03;1.33;;;26.40;52.50;;;;;;4993936;28;20030;-75
2022/10/02 12:26:57;;;;;;;7.40;2.17;;;26.40;52.90;;;;;;4993843;28;20121;-72
2022/10/02 12:29:01;;;;;;;4.20;1.40;;;26.50;51.30;;;;;;4994363;28;20459;-73
2022/10/02 12:31:52;;;;;;;4.82;1.90;;;26.50;52.00;;;;;;4993958;28;20030;-75
2022/10/02 12:34:59;;;;;;;3.47;1.30;;;26.50;51.40;;;;;;4992840;28;20590;-75
2022/10/02 12:38:03;;;;;;;6.90;1.60;;;26.50;52.00;;;;;;4962597;28;20120;-71
2022/10/02 12:40:37;;;;;;;4.23;1.37;;;26.30;51.40;;;;;;4993601;28;20396;-71
2022/10/02 12:43:49;;;;;;;4.85;1.40;;;26.20;52.30;;;;;;4993772;28;20038;-72
2022/10/02 12:46:24;;;;;;;6.57;1.90;;;26.30;51.80;;;;;;4993396;28;20105;-73
2022/10/02 12:49:21;;;;;;;4.65;1.40;;;26.40;51.40;;;;;;4993615;28;20109;-72
2022/10/02 12:51:46;;;;;;;4.80;1.60;;;26.50;51.00;;;;;;4993759;28;20057;-73
2022/10/02 12:54:37;;;;;;;6.03;1.45;;;26.60;51.50;;;;;;4993749;28;20044;-72
2022/10/02 13:00:19;;;;;;;6.30;2.05;;;26.80;49.60;;;;;;4993270;28;20102;-74
2022/10/02 13:03:04;;;;;;;10.45;2.00;;;26.90;51.50;;;;;;4993564;28;20114;-74
2022/10/02 13:05:56;;;;;;;6.15;1.70;;;27.00;51.60;;;;;;4993291;28;20225;-75
2022/10/02 13:08:40;;;;;;;4.22;1.30;;;27.10;49.70;;;;;;4977263;28;20284;-76
2022/10/02 13:11:14;;;;;;;4.30;1.50;;;27.20;49.30;;;;;;4993437;28;20431;-75
2022/10/02 13:14:01;;;;;;;6.22;1.65;;;27.10;49.50;;;;;;4993423;28;20027;-77
2022/10/02 13:16:57;;;;;;;7.20;1.80;;;27.10;49.20;;;;;;4993381;28;20058;-78
2022/10/02 13:19:42;;;;;;;11.07;2.13;;;27.00;49.50;;;;;;4993450;28;20049;-76
2022/10/02 13:22:19;;;;;;;4.10;1.60;;;26.90;50.60;;;;;;4993430;28;20030;-76
2022/10/02 13:25:15;;;;;;;4.22;1.58;;;26.80;50.90;;;;;;4991835;28;20038;-73
2022/10/02 13:27:48;;;;;;;6.95;1.75;;;26.80;50.20;;;;;;4993360;28;20453;-74
2022/10/02 13:30:19;;;;;;;5.85;1.67;;;26.80;50.30;;;;;;4993062;28;20045;-76
2022/10/02 13:33:13;;;;;;;5.40;1.80;;;26.80;50.90;;;;;;4991590;28;20329;-74
2022/10/02 13:35:38;;;;;;;6.55;1.92;;;26.90;50.10;;;;;;4991642;28;20054;-73
2022/10/02 13:38:23;;;;;;;3.80;1.52;;;27.00;50.60;;;;;;4992849;28;20061;-75
2022/10/02 13:41:01;;;;;;;7.22;1.85;;;27.10;50.60;;;;;;4992846;28;20396;-73
2022/10/02 13:43:44;;;;;;;5.78;1.63;;;27.10;50.30;;;;;;4992775;28;20436;-76
2022/10/02 13:46:21;;;;;;;4.18;1.65;;;27.10;51.00;;;;;;4995664;28;20035;-73
2022/10/02 13:48:56;;;;;;;7.75;1.92;;;27.10;50.70;;;;;;4996670;28;20384;-76
2022/10/02 13:51:32;;;;;;;4.32;2.05;;;27.00;49.90;;;;;;4996488;28;20467;-77
2022/10/02 13:54:10;;;;;;;5.75;1.98;;;26.90;51.10;;;;;;4996437;28;20034;-75
2022/10/02 13:56:42;;;;;;;4.85;1.70;;;26.80;50.30;;;;;;4996551;28;20026;-73
2022/10/02 13:59:20;;;;;;;5.78;1.73;;;26.80;50.60;;;;;;4996353;28;20034;-72
2022/10/02 14:01:59;;;;;;;6.47;1.92;;;26.60;50.50;;;;;;4996099;28;20026;-71
2022/10/02 14:05:02;;;;;;;5.57;1.55;;;26.50;50.90;;;;;;4996075;28;20038;-73
2022/10/02 14:07:31;;;;;;;6.00;1.77;;;26.60;51.30;;;;;;4975541;28;20089;-71
2022/10/02 14:10:18;;;;;;;5.35;1.70;;;26.70;51.50;;;;;;4995934;28;20038;-73
2022/10/02 14:12:44;;;;;;;5.43;1.70;;;26.70;50.40;;;;;;4996291;28;20019;-72
2022/10/02 14:15:54;;;;;;;4.50;1.70;;;26.80;51.20;;;;;;4996206;28;20118;-70
2022/10/02 14:18:26;;;;;;;5.25;1.65;;;26.80;50.10;;;;;;4996488;28;20022;-72